Terminal Aerodrome Forecast
Issued by NWS

Current Version | Previous Version | Text Only | Print | Product List | Glossary Off
Versions: 1 2 3 4 5 6 7 8 9 10 11 12 13 14 15 16 17 18 19 20

000
FTUS41 KPBZ 180500
TAFHLG
TAF
KHLG 180532Z 1806/1906 26015G25KT P6SM -SHSN SCT025 BKN035
      TEMPO 1806/1810 3SM -SHSN BKN025
     FM181400 26015G25KT P6SM BKN025
     FM181900 25012G22KT P6SM BKN035=

USA.gov is the U.S. government's official web portal to all federal, state and local government web resources and services.